Airport View

Enter AWOS ICAO identifier for current METAR.

ex. KFNL

K1S5 200005Z AUTO 23008KT 10SM CLR 19/07 A2998 RMK AO2 T01870065

19 Oct 2020 23:58

Frequency: 123.675

Phone: 509-836-2384

Other Area AWOS: KHMS - KRLD - KYKM - KPSC

TAF KYKM 191720Z 1918/2018 27005KT P6SM FEW150 FM192000 28015G25KT P6SM FEW090 FM200500 27009KT P6SM SCT090 FM201000 26005KT P6SM SCT120